Time;durP1;ratioP1;P1;durP2;ratioP2;P2;SDS_P1;SDS_P2;PMS_P1;PMS_P2;Temp;Humidity;BMP_temperature;BMP_pressure;BME280_temperature;BME280_humidity;BME280_pressure;Samples;Min_cycle;Max_cycle;Signal;HPM_P1;HPM_P2
2021/12/24 00:01:11;;;;;;;71.97;37.50;;;;;;;;;;5056011;28;20040;-60
2021/12/24 00:03:37;;;;;;;75.82;36.47;;;;;;;;;;5052800;28;20400;-59
2021/12/24 00:06:04;;;;;;;80.13;39.03;;;;;;;;;;5056171;28;20158;-58
2021/12/24 00:08:31;;;;;;;72.18;35.58;;;;;;;;;;5052848;28;20041;-60
2021/12/24 00:11:00;;;;;;;75.32;36.30;;;;;;;;;;5056510;28;20401;-59
2021/12/24 00:13:27;;;;;;;74.15;35.53;;;;;;;;;;5053203;28;20048;-60
2021/12/24 00:16:02;;;;;;;71.97;36.90;;;;;;;;;;5055226;28;20573;-58
2021/12/24 00:18:47;;;;;;;73.65;38.28;;;;;;;;;;5052775;28;20068;-61
2021/12/24 00:35:10;;;;;;;72.72;36.75;;;;;;;;;;5052936;28;20044;-59
2021/12/24 00:37:37;;;;;;;75.72;35.90;;;;;;;;;;5050524;28;20068;-59
2021/12/24 00:40:18;;;;;;;79.43;37.05;;;;;;;;;;5055679;28;20040;-59
2021/12/24 00:42:52;;;;;;;70.30;36.20;;;;;;;;;;5054747;28;20049;-62
2021/12/24 00:45:23;;;;;;;70.57;36.15;;;;;;;;;;5053024;28;20041;-61
2021/12/24 00:47:51;;;;;;;73.25;35.17;;;;;;;;;;5050874;28;20251;-56
2021/12/24 00:50:22;;;;;;;76.00;36.83;;;;;;;;;;5053080;28;20037;-58
2021/12/24 00:53:02;;;;;;;76.32;35.20;;;;;;;;;;5055301;28;20293;-58
2021/12/24 00:55:30;;;;;;;71.93;35.90;;;;;;;;;;5052754;28;20063;-59
2021/12/24 00:57:59;;;;;;;72.80;36.55;;;;;;;;;;5054789;28;20055;-55
2021/12/24 01:00:31;;;;;;;76.55;35.92;;;;;;;;;;5053642;28;20040;-63
2021/12/24 01:02:58;;;;;;;73.18;35.25;;;;;;;;;;5054687;28;20041;-59
2021/12/24 01:05:25;;;;;;;67.05;33.00;;;;;;;;;;5055032;28;20492;-57
2021/12/24 01:07:51;;;;;;;69.28;34.38;;;;;;;;;;5053123;28;20400;-60
2021/12/24 01:10:21;;;;;;;69.68;35.25;;;;;;;;;;5055169;28;20102;-60
2021/12/24 01:12:47;;;;;;;70.57;34.95;;;;;;;;;;5054919;28;20126;-55
2021/12/24 01:15:14;;;;;;;62.72;33.83;;;;;;;;;;5053240;28;20033;-56
2021/12/24 01:17:57;;;;;;;64.75;33.67;;;;;;;;;;5051020;28;20037;-60
2021/12/24 01:20:33;;;;;;;64.75;32.25;;;;;;;;;;5052560;28;20037;-60
2021/12/24 01:25:50;;;;;;;70.03;32.72;;;;;;;;;;5053282;28;20047;-57
2021/12/24 01:44:27;;;;;;;68.45;32.65;;;;;;;;;;5052536;28;20462;-61
2021/12/24 01:46:57;;;;;;;55.85;31.50;;;;;;;;;;5053873;28;20102;-55
2021/12/24 01:49:23;;;;;;;63.22;31.52;;;;;;;;;;5052671;28;20051;-61
2021/12/24 01:51:50;;;;;;;62.95;32.25;;;;;;;;;;5053690;28;20404;-53
2021/12/24 01:54:15;;;;;;;58.28;30.67;;;;;;;;;;5048182;28;20089;-56
2021/12/24 01:56:42;;;;;;;65.28;31.67;;;;;;;;;;5051966;28;20033;-58
2021/12/24 01:59:08;;;;;;;58.97;30.48;;;;;;;;;;5054262;28;20044;-60
2021/12/24 02:01:34;;;;;;;68.28;32.50;;;;;;;;;;5055725;28;20400;-53
2021/12/24 02:03:59;;;;;;;60.25;30.75;;;;;;;;;;5058081;28;20071;-59
2021/12/24 02:06:25;;;;;;;61.03;29.60;;;;;;;;;;5057511;28;20075;-51
2021/12/24 02:08:51;;;;;;;51.92;28.70;;;;;;;;;;5056065;28;20508;-56
2021/12/24 02:11:17;;;;;;;58.30;30.52;;;;;;;;;;5058735;28;20517;-55
2021/12/24 02:13:42;;;;;;;53.08;28.80;;;;;;;;;;5055684;28;20087;-55
2021/12/24 02:16:38;;;;;;;56.17;28.55;;;;;;;;;;5056886;28;20056;-56
2021/12/24 02:30:04;;;;;;;50.60;26.40;;;;;;;;;;5056537;28;20404;-59
2021/12/24 02:32:30;;;;;;;50.85;26.60;;;;;;;;;;5054853;28;20136;-54
2021/12/24 02:34:55;;;;;;;51.17;28.20;;;;;;;;;;5047133;28;20091;-56
2021/12/24 02:37:21;;;;;;;49.63;26.85;;;;;;;;;;5056551;28;20509;-54
2021/12/24 02:39:47;;;;;;;43.95;25.27;;;;;;;;;;5061468;28;20090;-56
2021/12/24 02:42:16;;;;;;;51.88;26.35;;;;;;;;;;5062954;28;20512;-56
2021/12/24 02:44:43;;;;;;;51.45;27.70;;;;;;;;;;5060433;28;20634;-54
2021/12/24 02:47:36;;;;;;;45.15;26.88;;;;;;;;;;5061356;28;20041;-55
2021/12/24 02:55:11;;;;;;;51.20;26.20;;;;;;;;;;5057597;28;20407;-58
2021/12/24 02:57:38;;;;;;;51.67;25.67;;;;;;;;;;5059377;28;20481;-55
2021/12/24 03:00:14;;;;;;;51.17;27.05;;;;;;;;;;5064391;28;20060;-53
2021/12/24 03:02:43;;;;;;;45.20;25.25;;;;;;;;;;5059198;28;20047;-53
2021/12/24 03:05:09;;;;;;;51.58;27.23;;;;;;;;;;5064372;28;20040;-55
2021/12/24 03:07:35;;;;;;;48.58;26.23;;;;;;;;;;5059544;28;20275;-57
2021/12/24 03:10:02;;;;;;;50.92;25.83;;;;;;;;;;5062079;28;20041;-57
2021/12/24 03:12:29;;;;;;;44.90;25.17;;;;;;;;;;5062659;28;20049;-55
2021/12/24 03:14:55;;;;;;;55.47;27.67;;;;;;;;;;5059621;28;20094;-58
2021/12/24 03:17:23;;;;;;;52.20;26.55;;;;;;;;;;5063483;28;20048;-56
2021/12/24 03:19:52;;;;;;;47.67;25.33;;;;;;;;;;5056563;28;20485;-59
2021/12/24 03:22:43;;;;;;;50.58;26.90;;;;;;;;;;5060913;28;20070;-57
2021/12/24 03:25:09;;;;;;;51.53;28.52;;;;;;;;;;5061582;28;20177;-58
2021/12/24 03:27:35;;;;;;;49.50;26.92;;;;;;;;;;5057350;28;20036;-55
2021/12/24 03:30:00;;;;;;;48.33;25.25;;;;;;;;;;5056956;28;20090;-53
2021/12/24 03:32:26;;;;;;;50.28;25.70;;;;;;;;;;5054956;28;20041;-57
2021/12/24 03:34:52;;;;;;;51.53;25.85;;;;;;;;;;5056499;28;20060;-57
2021/12/24 03:37:19;;;;;;;51.50;27.05;;;;;;;;;;5055502;28;20051;-56
2021/12/24 03:39:44;;;;;;;51.30;27.13;;;;;;;;;;5053575;28;20045;-57
2021/12/24 03:42:10;;;;;;;45.63;25.77;;;;;;;;;;5056972;28;20103;-57
2021/12/24 03:44:42;;;;;;;46.40;24.83;;;;;;;;;;5053588;28;20047;-56
2021/12/24 03:47:14;;;;;;;46.88;24.38;;;;;;;;;;5053616;28;20141;-55
2021/12/24 03:52:33;;;;;;;47.95;23.98;;;;;;;;;;5048326;28;20044;-58
2021/12/24 03:54:58;;;;;;;45.65;23.88;;;;;;;;;;5053829;28;20045;-55
2021/12/24 03:57:26;;;;;;;42.17;22.90;;;;;;;;;;5053740;28;20130;-60
2021/12/24 03:59:52;;;;;;;46.35;24.33;;;;;;;;;;5055926;28;20129;-54
2021/12/24 04:02:17;;;;;;;43.72;23.20;;;;;;;;;;5054551;28;20114;-58
2021/12/24 04:04:43;;;;;;;42.17;23.13;;;;;;;;;;5054709;28;20045;-58
2021/12/24 04:07:09;;;;;;;39.53;21.23;;;;;;;;;;5056156;28;20089;-59
2021/12/24 04:09:36;;;;;;;38.92;22.42;;;;;;;;;;5052665;28;20049;-59
2021/12/24 04:12:03;;;;;;;43.85;23.13;;;;;;;;;;5056521;28;20086;-53
2021/12/24 04:14:28;;;;;;;43.67;22.63;;;;;;;;;;5054018;28;20123;-57
2021/12/24 04:16:54;;;;;;;39.60;22.35;;;;;;;;;;5054688;28;20067;-58
2021/12/24 04:19:38;;;;;;;41.17;22.15;;;;;;;;;;5055585;28;20072;-55
2021/12/24 04:24:56;;;;;;;37.78;21.27;;;;;;;;;;5055462;28;20133;-57
2021/12/24 04:27:27;;;;;;;40.08;22.50;;;;;;;;;;5052414;28;20301;-57
2021/12/24 04:30:00;;;;;;;41.72;21.77;;;;;;;;;;5053698;28;20044;-61
2021/12/24 04:32:35;;;;;;;40.60;21.23;;;;;;;;;;5054664;28;20090;-53
2021/12/24 04:35:16;;;;;;;41.50;21.52;;;;;;;;;;5055581;28;20510;-58
2021/12/24 04:38:33;;;;;;;40.25;21.65;;;;;;;;;;5053737;28;20052;-56
2021/12/24 04:51:17;;;;;;;38.58;21.33;;;;;;;;;;5055158;28;20047;-60
2021/12/24 05:01:14;;;;;;;38.25;19.27;;;;;;;;;;5053619;28;20488;-52
2021/12/24 05:02:33;;;;;;;38.05;19.95;;;;;;;;;;5059533;28;20055;-55
2021/12/24 05:05:10;;;;;;;36.57;21.00;;;;;;;;;;5059311;28;20446;-56
2021/12/24 05:08:02;;;;;;;34.28;19.48;;;;;;;;;;5059999;28;20044;-53
2021/12/24 05:10:24;;;;;;;32.45;18.08;;;;;;;;;;5056826;28;20052;-55
2021/12/24 05:12:50;;;;;;;32.47;18.38;;;;;;;;;;5061647;28;20120;-56
2021/12/24 05:15:17;;;;;;;31.23;18.38;;;;;;;;;;5056932;28;20086;-60
2021/12/24 05:18:08;;;;;;;34.83;18.58;;;;;;;;;;5054859;28;20041;-55
2021/12/24 05:23:18;;;;;;;35.03;17.92;;;;;;;;;;5058199;28;20047;-52
2021/12/24 05:25:46;;;;;;;31.13;17.50;;;;;;;;;;5061889;28;20044;-59
2021/12/24 05:28:12;;;;;;;28.90;16.58;;;;;;;;;;5057400;28;20037;-53
2021/12/24 05:30:38;;;;;;;28.40;16.50;;;;;;;;;;5060776;28;20419;-56
2021/12/24 05:33:04;;;;;;;33.58;16.65;;;;;;;;;;5056976;28;20037;-53
2021/12/24 05:35:30;;;;;;;30.17;15.73;;;;;;;;;;5058756;28;20432;-56
2021/12/24 05:37:56;;;;;;;26.48;15.93;;;;;;;;;;5058793;28;20041;-54
2021/12/24 05:40:22;;;;;;;28.98;18.08;;;;;;;;;;5058521;28;20047;-56
2021/12/24 05:42:48;;;;;;;26.40;15.45;;;;;;;;;;5060984;28;20092;-56
2021/12/24 05:45:14;;;;;;;27.98;15.70;;;;;;;;;;5056966;28;20049;-55
2021/12/24 05:47:40;;;;;;;23.42;13.93;;;;;;;;;;5058141;28;20047;-59
2021/12/24 05:50:08;;;;;;;22.30;14.13;;;;;;;;;;5059341;28;20155;-57
2021/12/24 05:52:34;;;;;;;23.98;14.32;;;;;;;;;;5056917;28;20032;-48
2021/12/24 05:55:00;;;;;;;23.63;13.80;;;;;;;;;;5061894;28;20190;-45
2021/12/24 05:57:28;;;;;;;20.88;13.13;;;;;;;;;;5056030;28;20040;-52
2021/12/24 05:59:54;;;;;;;20.65;12.45;;;;;;;;;;5058966;28;20050;-46
2021/12/24 06:02:20;;;;;;;17.15;11.73;;;;;;;;;;5059106;28;20068;-48
2021/12/24 06:04:46;;;;;;;16.33;10.70;;;;;;;;;;5056508;28;20064;-45
2021/12/24 06:07:11;;;;;;;17.50;10.48;;;;;;;;;;5061408;28;20127;-53
2021/12/24 06:09:37;;;;;;;17.00;11.45;;;;;;;;;;5054184;28;20044;-43
2021/12/24 06:12:03;;;;;;;16.02;10.80;;;;;;;;;;5058231;28;20120;-50
2021/12/24 06:14:29;;;;;;;13.90;10.13;;;;;;;;;;5058198;28;20049;-45
2021/12/24 06:17:03;;;;;;;14.88;9.55;;;;;;;;;;5056311;28;20094;-49
2021/12/24 06:19:29;;;;;;;14.57;10.13;;;;;;;;;;5055534;28;20036;-50
2021/12/24 06:21:58;;;;;;;13.18;9.98;;;;;;;;;;5054836;28;20538;-50
2021/12/24 06:24:24;;;;;;;14.68;9.40;;;;;;;;;;5060186;28;20046;-49
2021/12/24 06:26:50;;;;;;;14.40;9.80;;;;;;;;;;5058288;28;20041;-45
2021/12/24 06:29:17;;;;;;;15.02;10.65;;;;;;;;;;5058074;28;20037;-50
2021/12/24 06:31:43;;;;;;;11.77;8.70;;;;;;;;;;5061373;28;20480;-48
2021/12/24 06:34:08;;;;;;;12.55;8.85;;;;;;;;;;5056677;28;20041;-45
2021/12/24 06:36:37;;;;;;;12.52;9.05;;;;;;;;;;5058962;28;20122;-49
2021/12/24 06:39:04;;;;;;;13.75;9.13;;;;;;;;;;5057932;28;20051;-46
2021/12/24 06:41:30;;;;;;;13.07;9.23;;;;;;;;;;5057798;28;20045;-46
2021/12/24 06:43:56;;;;;;;15.18;11.00;;;;;;;;;;5060538;28;20037;-49
2021/12/24 06:46:22;;;;;;;14.57;9.77;;;;;;;;;;5055969;28;20052;-51
2021/12/24 06:48:53;;;;;;;13.90;10.07;;;;;;;;;;5052604;28;20065;-52
2021/12/24 06:51:19;;;;;;;14.23;9.20;;;;;;;;;;5053792;28;20045;-50
2021/12/24 06:53:44;;;;;;;13.75;9.63;;;;;;;;;;5060575;28;20083;-48
2021/12/24 06:56:10;;;;;;;13.15;9.73;;;;;;;;;;5064365;28;20041;-49
2021/12/24 06:58:36;;;;;;;14.93;9.93;;;;;;;;;;5051721;28;20094;-50
2021/12/24 07:01:01;;;;;;;12.27;8.98;;;;;;;;;;5054450;28;20376;-50
2021/12/24 07:03:27;;;;;;;13.65;10.43;;;;;;;;;;5061381;28;20054;-47
2021/12/24 07:05:53;;;;;;;12.27;9.55;;;;;;;;;;5060381;28;20684;-49
2021/12/24 07:08:18;;;;;;;14.23;9.65;;;;;;;;;;5063827;28;20083;-52
2021/12/24 07:10:44;;;;;;;14.18;9.63;;;;;;;;;;5058333;28;20091;-47
2021/12/24 07:13:10;;;;;;;13.15;9.32;;;;;;;;;;5059076;28;20463;-47
2021/12/24 07:15:36;;;;;;;13.00;9.60;;;;;;;;;;5059436;28;20041;-48
2021/12/24 07:18:02;;;;;;;13.93;10.02;;;;;;;;;;5057593;28;20064;-49
2021/12/24 07:20:27;;;;;;;13.82;9.48;;;;;;;;;;5063700;28;20040;-43
2021/12/24 07:22:53;;;;;;;12.82;9.82;;;;;;;;;;5057987;28;20037;-47
2021/12/24 07:25:20;;;;;;;13.85;10.73;;;;;;;;;;5062805;28;20091;-47
2021/12/24 07:27:45;;;;;;;13.77;10.25;;;;;;;;;;5058273;28;20048;-45
2021/12/24 07:30:12;;;;;;;12.40;9.20;;;;;;;;;;5061430;28;20032;-53
2021/12/24 07:32:40;;;;;;;13.18;8.48;;;;;;;;;;5062205;28;20396;-51
2021/12/24 07:35:07;;;;;;;10.68;8.77;;;;;;;;;;5058525;28;20059;-49
2021/12/24 07:37:32;;;;;;;10.15;7.28;;;;;;;;;;5056385;28;20674;-45
2021/12/24 07:39:58;;;;;;;9.05;7.15;;;;;;;;;;5052296;28;20044;-50
2021/12/24 07:42:26;;;;;;;8.38;7.07;;;;;;;;;;5052153;28;20045;-48
2021/12/24 07:44:52;;;;;;;8.70;7.07;;;;;;;;;;5047745;28;20594;-45
2021/12/24 07:47:27;;;;;;;9.50;7.88;;;;;;;;;;5052232;28;20044;-50
2021/12/24 07:50:02;;;;;;;7.97;6.93;;;;;;;;;;5047152;28;20044;-46
2021/12/24 07:52:28;;;;;;;6.55;4.75;;;;;;;;;;5051738;28;20212;-44
2021/12/24 07:54:54;;;;;;;9.07;6.03;;;;;;;;;;5051413;28;20048;-48
2021/12/24 07:57:20;;;;;;;6.82;5.78;;;;;;;;;;5050134;28;20098;-49
2021/12/24 07:59:46;;;;;;;7.35;5.80;;;;;;;;;;5049769;28;20465;-50
2021/12/24 08:02:18;;;;;;;7.88;6.07;;;;;;;;;;5054146;28;20044;-51
2021/12/24 08:04:45;;;;;;;10.70;6.10;;;;;;;;;;5049837;28;20127;-46
2021/12/24 08:07:12;;;;;;;7.45;5.80;;;;;;;;;;5052366;28;20147;-47
2021/12/24 08:09:38;;;;;;;7.22;6.10;;;;;;;;;;5049737;28;20040;-48
2021/12/24 08:12:09;;;;;;;6.90;6.13;;;;;;;;;;5051580;28;20411;-45
2021/12/24 08:14:35;;;;;;;8.48;7.32;;;;;;;;;;5045707;28;20135;-49
2021/12/24 08:17:01;;;;;;;9.18;6.75;;;;;;;;;;5050687;28;20479;-49
2021/12/24 08:19:27;;;;;;;8.18;5.78;;;;;;;;;;5050599;28;20052;-48
2021/12/24 08:21:52;;;;;;;6.53;5.82;;;;;;;;;;5055270;28;20037;-50
2021/12/24 08:24:18;;;;;;;7.15;6.07;;;;;;;;;;5054518;28;20080;-51
2021/12/24 08:26:44;;;;;;;7.60;6.47;;;;;;;;;;5046565;28;20106;-48
2021/12/24 08:29:10;;;;;;;7.38;6.22;;;;;;;;;;5049845;28;20048;-47
2021/12/24 08:31:36;;;;;;;7.70;5.88;;;;;;;;;;5049307;28;20557;-46
2021/12/24 08:34:03;;;;;;;7.03;5.93;;;;;;;;;;5050742;28;20040;-47
2021/12/24 08:36:29;;;;;;;6.68;5.53;;;;;;;;;;5051291;28;20262;-51
2021/12/24 08:38:55;;;;;;;6.68;5.40;;;;;;;;;;5052298;28;20060;-45
2021/12/24 08:41:21;;;;;;;6.45;5.70;;;;;;;;;;5052190;28;20056;-47
2021/12/24 08:43:47;;;;;;;6.32;5.40;;;;;;;;;;5050334;28;20041;-46
2021/12/24 08:46:13;;;;;;;5.57;4.97;;;;;;;;;;5054955;28;20068;-48
2021/12/24 08:48:38;;;;;;;7.03;5.22;;;;;;;;;;5046728;28;20508;-45
2021/12/24 08:51:04;;;;;;;5.10;4.53;;;;;;;;;;5047992;28;20102;-47
2021/12/24 08:53:30;;;;;;;5.35;4.85;;;;;;;;;;5051602;28;20048;-43
2021/12/24 08:55:55;;;;;;;5.47;4.85;;;;;;;;;;5051547;28;20083;-50
2021/12/24 08:58:21;;;;;;;6.15;5.55;;;;;;;;;;5048245;28;20523;-46
2021/12/24 09:00:47;;;;;;;6.50;5.55;;;;;;;;;;5051977;28;20200;-51
2021/12/24 09:03:12;;;;;;;7.03;5.20;;;;;;;;;;5052057;28;20049;-48
2021/12/24 09:05:38;;;;;;;6.18;4.63;;;;;;;;;;5049367;28;20044;-51
2021/12/24 09:08:04;;;;;;;6.10;4.40;;;;;;;;;;5047070;28;20431;-50
2021/12/24 09:10:30;;;;;;;6.53;4.80;;;;;;;;;;5048489;28;20067;-49
2021/12/24 09:12:56;;;;;;;6.68;4.82;;;;;;;;;;5050333;28;20045;-52
2021/12/24 09:15:27;;;;;;;5.53;4.47;;;;;;;;;;5047697;28;20491;-48
2021/12/24 09:17:53;;;;;;;5.70;4.05;;;;;;;;;;5050671;28;20041;-50
2021/12/24 09:20:29;;;;;;;4.75;4.00;;;;;;;;;;5051841;28;20090;-49
2021/12/24 09:22:55;;;;;;;;;;;;;;;;;;5052238;28;20041;-51
2021/12/24 09:25:23;;;;;;;4.55;4.03;;;;;;;;;;5054400;28;19925;-47
2021/12/24 09:27:49;;;;;;;4.43;3.63;;;;;;;;;;5050832;28;20119;-49
2021/12/24 09:30:16;;;;;;;5.18;3.65;;;;;;;;;;5049086;28;20048;-51
2021/12/24 09:32:41;;;;;;;4.57;3.55;;;;;;;;;;5049741;28;20453;-47
2021/12/24 09:35:08;;;;;;;6.03;3.60;;;;;;;;;;5047784;28;20516;-48
2021/12/24 09:37:35;;;;;;;3.97;3.60;;;;;;;;;;5047387;28;20040;-48
2021/12/24 09:40:01;;;;;;;4.00;3.60;;;;;;;;;;5050572;28;20055;-50
2021/12/24 09:42:27;;;;;;;3.60;3.30;;;;;;;;;;5050771;28;20049;-49
2021/12/24 09:44:53;;;;;;;3.63;3.33;;;;;;;;;;5050169;28;20063;-49
2021/12/24 09:47:18;;;;;;;3.45;3.15;;;;;;;;;;5051302;28;20060;-47
2021/12/24 09:49:44;;;;;;;4.28;3.17;;;;;;;;;;5052052;28;20107;-47
2021/12/24 09:52:10;;;;;;;2.83;2.63;;;;;;;;;;5050132;28;20037;-44
2021/12/24 09:54:36;;;;;;;3.90;3.33;;;;;;;;;;5051153;28;21044;-49
2021/12/24 09:57:02;;;;;;;4.90;3.45;;;;;;;;;;5050224;28;20292;-45
2021/12/24 09:59:27;;;;;;;3.45;3.15;;;;;;;;;;5053131;28;20045;-48
2021/12/24 10:01:58;;;;;;;4.43;3.40;;;;;;;;;;5053054;28;20033;-48
2021/12/24 10:04:32;;;;;;;13.90;8.90;;;;;;;;;;5055481;28;20048;-46
2021/12/24 10:07:06;;;;;;;12.30;8.20;;;;;;;;;;5054351;28;20130;-48
2021/12/24 10:09:37;;;;;;;4.10;3.70;;;;;;;;;;5055563;28;20325;-47
2021/12/24 10:12:06;;;;;;;5.80;2.80;;;;;;;;;;5055555;28;20116;-47
2021/12/24 10:14:34;;;;;;;3.03;2.60;;;;;;;;;;5050434;28;20504;-49
2021/12/24 10:17:01;;;;;;;2.92;2.72;;;;;;;;;;5048944;28;20143;-44
2021/12/24 10:19:26;;;;;;;3.17;2.40;;;;;;;;;;5052517;28;20069;-49
2021/12/24 10:22:01;;;;;;;4.05;3.00;;;;;;;;;;5053568;28;20041;-44
2021/12/24 10:24:27;;;;;;;2.60;2.17;;;;;;;;;;5053016;28;20780;-47
2021/12/24 10:26:55;;;;;;;2.55;2.30;;;;;;;;;;5052382;28;20511;-50
2021/12/24 10:29:32;;;;;;;2.78;1.90;;;;;;;;;;5058477;28;20226;-45
2021/12/24 10:32:00;;;;;;;2.25;1.98;;;;;;;;;;5055279;28;20144;-48
2021/12/24 10:34:35;;;;;;;2.17;1.98;;;;;;;;;;5050939;28;20516;-51
2021/12/24 10:37:04;;;;;;;2.45;2.25;;;;;;;;;;5054165;28;20128;-49
2021/12/24 10:39:39;;;;;;;1.90;1.77;;;;;;;;;;5056841;28;20412;-48
2021/12/24 10:42:28;;;;;;;2.25;2.05;;;;;;;;;;5055818;28;20037;-47
2021/12/24 10:44:55;;;;;;;2.70;1.92;;;;;;;;;;5039464;28;20040;-44
2021/12/24 10:47:26;;;;;;;3.88;2.78;;;;;;;;;;5056382;28;20537;-45
2021/12/24 10:53:15;;;;;;;7.07;5.60;;;;;;;;;;5054256;28;20040;-50
2021/12/24 10:55:50;;;;;;;17.88;16.42;;;;;;;;;;5054729;28;20044;-53
2021/12/24 10:58:19;;;;;;;10.18;9.38;;;;;;;;;;5055702;28;20469;-51
2021/12/24 11:00:49;;;;;;;7.28;6.85;;;;;;;;;;5054180;28;20491;-47
2021/12/24 11:03:22;;;;;;;10.98;10.27;;;;;;;;;;5052027;28;20053;-46
2021/12/24 11:05:51;;;;;;;4.55;4.15;;;;;;;;;;5055931;28;20039;-46
2021/12/24 11:08:22;;;;;;;3.17;2.60;;;;;;;;;;5056257;28;20037;-52
2021/12/24 11:10:54;;;;;;;2.28;2.10;;;;;;;;;;5057589;28;20327;-47
2021/12/24 11:13:38;;;;;;;2.05;1.90;;;;;;;;;;5054538;28;20043;-46
2021/12/24 11:16:06;;;;;;;2.40;2.20;;;;;;;;;;5054186;28;20070;-49
2021/12/24 11:18:39;;;;;;;2.47;2.10;;;;;;;;;;5055309;28;20061;-51
2021/12/24 11:21:10;;;;;;;2.50;2.30;;;;;;;;;;5052776;28;20831;-47
2021/12/24 11:23:38;;;;;;;2.42;2.22;;;;;;;;;;5054425;28;20585;-54
2021/12/24 11:26:07;;;;;;;2.70;2.20;;;;;;;;;;5053742;28;20533;-50
2021/12/24 11:28:34;;;;;;;1.75;1.65;;;;;;;;;;5052710;28;20140;-50
2021/12/24 11:31:06;;;;;;;1.77;1.67;;;;;;;;;;5056100;28;20041;-51
2021/12/24 11:33:34;;;;;;;2.38;1.60;;;;;;;;;;5047092;28;20033;-48
2021/12/24 11:36:01;;;;;;;1.55;1.45;;;;;;;;;;5056095;28;20116;-50
2021/12/24 11:38:32;;;;;;;1.50;1.40;;;;;;;;;;5054552;28;20431;-50
2021/12/24 11:40:59;;;;;;;1.98;1.80;;;;;;;;;;5053681;28;20048;-47
2021/12/24 11:43:32;;;;;;;4.10;2.50;;;;;;;;;;5054744;28;20063;-52
2021/12/24 11:45:58;;;;;;;3.05;2.35;;;;;;;;;;5054434;28;20060;-50
2021/12/24 11:48:27;;;;;;;2.45;2.08;;;;;;;;;;5054446;28;20043;-51
2021/12/24 11:50:53;;;;;;;1.90;1.80;;;;;;;;;;5054320;28;20045;-45
2021/12/24 11:53:19;;;;;;;2.50;1.60;;;;;;;;;;5052680;28;20466;-52
2021/12/24 11:55:50;;;;;;;1.30;1.20;;;;;;;;;;5054223;28;20508;-49
2021/12/24 11:58:20;;;;;;;1.77;1.20;;;;;;;;;;5049214;28;20059;-48
2021/12/24 12:00:50;;;;;;;1.23;1.02;;;;;;;;;;5054948;28;20057;-50
2021/12/24 12:03:31;;;;;;;7.63;4.78;;;;;;;;;;5053392;28;20040;-49
2021/12/24 12:05:57;;;;;;;1.75;1.65;;;;;;;;;;5054837;28;20041;-52
2021/12/24 12:08:25;;;;;;;1.25;1.15;;;;;;;;;;5052362;28;20144;-48
2021/12/24 12:11:02;;;;;;;1.45;1.10;;;;;;;;;;5054107;28;20132;-50
2021/12/24 12:13:48;;;;;;;1.13;1.02;;;;;;;;;;5053275;28;20037;-51
2021/12/24 12:16:17;;;;;;;1.30;1.20;;;;;;;;;;5053711;28;20436;-50
2021/12/24 12:18:49;;;;;;;0.80;0.80;;;;;;;;;;5054610;28;20388;-46
2021/12/24 12:21:20;;;;;;;0.88;0.80;;;;;;;;;;5053090;28;20049;-53
2021/12/24 12:26:44;;;;;;;1.40;1.25;;;;;;;;;;5052683;28;20151;-52
2021/12/24 12:29:26;;;;;;;1.65;1.55;;;;;;;;;;5053612;28;20040;-49
2021/12/24 12:32:02;;;;;;;1.00;0.90;;;;;;;;;;5054093;28;20121;-47
2021/12/24 12:34:40;;;;;;;2.05;1.52;;;;;;;;;;5051887;28;20033;-50
2021/12/24 12:37:31;;;;;;;3.80;1.90;;;;;;;;;;5054316;28;20044;-45
2021/12/24 12:40:18;;;;;;;2.13;1.85;;;;;;;;;;5052305;28;20036;-52
2021/12/24 12:42:54;;;;;;;0.93;0.90;;;;;;;;;;5055251;28;20033;-51
2021/12/24 12:45:23;;;;;;;;;;;;;;;;;;5053641;28;20071;-51
2021/12/24 12:47:55;;;;;;;0.75;0.47;;;;;;;;;;5053637;28;19923;-50
2021/12/24 12:50:22;;;;;;;1.92;0.90;;;;;;;;;;5053252;28;20037;-46
2021/12/24 12:52:48;;;;;;;1.67;1.40;;;;;;;;;;5052784;28;20497;-46
2021/12/24 12:55:34;;;;;;;1.58;0.80;;;;;;;;;;5056536;28;20057;-46
2021/12/24 12:58:19;;;;;;;1.20;0.95;;;;;;;;;;5053804;28;20061;-49
2021/12/24 13:01:05;;;;;;;0.82;0.60;;;;;;;;;;5055806;28;20059;-51
2021/12/24 13:03:32;;;;;;;1.25;0.90;;;;;;;;;;5051503;28;20037;-49
2021/12/24 13:06:02;;;;;;;1.80;1.02;;;;;;;;;;5054420;28;20052;-50
2021/12/24 13:08:31;;;;;;;1.02;0.93;;;;;;;;;;5053685;28;20407;-49
2021/12/24 13:11:09;;;;;;;2.42;1.17;;;;;;;;;;5052990;28;20443;-49
2021/12/24 13:13:54;;;;;;;1.50;1.40;;;;;;;;;;5054163;28;20049;-49
2021/12/24 13:16:24;;;;;;;1.00;0.88;;;;;;;;;;5053472;28;20206;-49
2021/12/24 13:18:57;;;;;;;0.98;0.90;;;;;;;;;;5053883;28;20053;-51
2021/12/24 13:24:13;;;;;;;1.60;1.50;;;;;;;;;;5054969;28;20094;-47
2021/12/24 13:26:38;;;;;;;1.85;1.35;;;;;;;;;;5051738;28;20048;-50
2021/12/24 13:29:12;;;;;;;1.60;1.10;;;;;;;;;;5053808;28;20040;-48
2021/12/24 13:31:39;;;;;;;1.67;1.42;;;;;;;;;;5053481;28;20041;-50
2021/12/24 13:34:12;;;;;;;1.60;1.20;;;;;;;;;;5052594;28;20355;-50
2021/12/24 13:36:38;;;;;;;1.30;1.20;;;;;;;;;;5053992;28;20079;-48
2021/12/24 13:39:09;;;;;;;1.42;1.20;;;;;;;;;;5053200;28;20036;-47
2021/12/24 13:41:35;;;;;;;2.00;1.90;;;;;;;;;;5052277;28;20043;-49
2021/12/24 13:44:00;;;;;;;1.60;1.50;;;;;;;;;;5053819;28;20496;-51
2021/12/24 13:46:29;;;;;;;2.10;1.65;;;;;;;;;;5058229;28;20040;-49
2021/12/24 13:49:16;;;;;;;1.50;1.40;;;;;;;;;;5052072;28;20629;-45
2021/12/24 13:54:35;;;;;;;1.67;1.58;;;;;;;;;;5056852;28;20302;-44
2021/12/24 13:57:04;;;;;;;2.05;1.65;;;;;;;;;;5059508;28;20032;-48
2021/12/24 13:59:31;;;;;;;2.38;1.70;;;;;;;;;;5064404;28;20495;-50
2021/12/24 14:01:57;;;;;;;2.95;2.40;;;;;;;;;;5060659;28;20125;-48
2021/12/24 14:04:23;;;;;;;4.93;2.88;;;;;;;;;;5061331;28;20051;-47
2021/12/24 14:06:55;;;;;;;3.97;3.15;;;;;;;;;;5062941;28;20040;-47
2021/12/24 14:09:24;;;;;;;3.33;3.03;;;;;;;;;;5061329;28;20083;-47
2021/12/24 14:11:52;;;;;;;3.83;3.25;;;;;;;;;;5064009;28;20450;-49
2021/12/24 14:14:24;;;;;;;3.95;3.50;;;;;;;;;;5060476;28;20703;-47
2021/12/24 14:17:20;;;;;;;5.68;4.40;;;;;;;;;;5062106;28;20040;-46
2021/12/24 14:22:22;;;;;;;4.50;4.07;;;;;;;;;;5062510;28;20041;-46
2021/12/24 14:24:53;;;;;;;4.40;4.00;;;;;;;;;;5058209;28;20041;-49
2021/12/24 14:27:21;;;;;;;6.60;4.93;;;;;;;;;;5058385;28;20041;-49
2021/12/24 14:29:54;;;;;;;5.70;5.10;;;;;;;;;;5059488;28;20064;-47
2021/12/24 14:32:31;;;;;;;5.03;4.53;;;;;;;;;;5057835;28;20040;-48
2021/12/24 14:34:59;;;;;;;5.25;4.75;;;;;;;;;;5055599;28;20091;-47
2021/12/24 14:37:34;;;;;;;5.32;4.50;;;;;;;;;;5056405;28;20098;-49
2021/12/24 14:40:06;;;;;;;5.32;4.80;;;;;;;;;;5058376;28;20049;-48
2021/12/24 14:42:37;;;;;;;7.03;5.70;;;;;;;;;;5059953;28;20407;-47
2021/12/24 14:45:17;;;;;;;6.78;5.72;;;;;;;;;;5055544;28;20411;-45
2021/12/24 14:48:05;;;;;;;8.25;5.93;;;;;;;;;;5062468;28;20127;-50
2021/12/24 14:50:37;;;;;;;7.53;6.50;;;;;;;;;;5070166;28;20056;-45
2021/12/24 14:53:33;;;;;;;8.50;7.13;;;;;;;;;;5061127;28;20040;-49
2021/12/24 14:56:04;;;;;;;9.05;7.22;;;;;;;;;;5021023;28;20037;-46
2021/12/24 14:58:43;;;;;;;9.50;8.52;;;;;;;;;;5061928;28;20059;-46
2021/12/24 15:01:11;;;;;;;8.55;7.65;;;;;;;;;;5058924;28;20033;-45
2021/12/24 15:03:42;;;;;;;8.18;5.95;;;;;;;;;;5058761;28;20667;-44
2021/12/24 15:06:25;;;;;;;9.40;7.15;;;;;;;;;;5062305;28;20047;-45
2021/12/24 15:08:51;;;;;;;8.45;7.35;;;;;;;;;;5054607;28;20068;-47
2021/12/24 15:11:22;;;;;;;9.43;7.50;;;;;;;;;;5061874;28;20060;-49
2021/12/24 15:13:57;;;;;;;13.45;11.05;;;;;;;;;;5057848;28;20117;-48
2021/12/24 15:16:26;;;;;;;9.70;8.68;;;;;;;;;;5058501;28;20491;-47
2021/12/24 15:18:54;;;;;;;9.65;8.55;;;;;;;;;;5058109;28;20060;-49
2021/12/24 15:21:21;;;;;;;10.15;8.98;;;;;;;;;;5060359;28;20064;-47
2021/12/24 15:23:48;;;;;;;10.20;8.60;;;;;;;;;;5062417;28;20519;-50
2021/12/24 15:26:15;;;;;;;9.32;8.38;;;;;;;;;;5058670;28;20103;-48
2021/12/24 15:28:43;;;;;;;6.50;5.90;;;;;;;;;;5058521;28;20047;-48
2021/12/24 15:31:09;;;;;;;7.80;6.85;;;;;;;;;;5059334;28;20162;-48
2021/12/24 15:33:36;;;;;;;7.47;6.72;;;;;;;;;;5057431;28;20100;-46
2021/12/24 15:36:02;;;;;;;9.63;6.65;;;;;;;;;;5061358;28;20151;-50
2021/12/24 15:38:27;;;;;;;7.78;6.43;;;;;;;;;;5060884;28;20049;-45
2021/12/24 15:40:53;;;;;;;7.45;6.40;;;;;;;;;;5058809;28;20121;-51
2021/12/24 15:43:19;;;;;;;10.10;7.15;;;;;;;;;;5063598;28;20071;-45
2021/12/24 15:45:46;;;;;;;9.25;6.47;;;;;;;;;;5057077;28;20044;-44
2021/12/24 15:48:13;;;;;;;7.65;6.88;;;;;;;;;;5060819;28;20127;-48
2021/12/24 15:50:38;;;;;;;9.57;8.60;;;;;;;;;;5054739;28;20278;-48
2021/12/24 15:53:04;;;;;;;11.70;8.32;;;;;;;;;;5058397;28;20555;-48
2021/12/24 15:55:32;;;;;;;8.57;6.90;;;;;;;;;;5062645;28;20488;-46
2021/12/24 15:57:59;;;;;;;8.57;7.07;;;;;;;;;;5055141;28;20072;-51
2021/12/24 16:00:24;;;;;;;20.08;12.55;;;;;;;;;;5057043;28;20044;-49
2021/12/24 16:02:50;;;;;;;31.40;18.65;;;;;;;;;;5053546;28;20111;-43
2021/12/24 16:05:16;;;;;;;10.40;7.60;;;;;;;;;;5058062;28;20567;-47
2021/12/24 16:07:42;;;;;;;9.73;8.30;;;;;;;;;;5058687;28;20036;-47
2021/12/24 16:10:08;;;;;;;7.53;6.82;;;;;;;;;;5055322;28;20537;-48
2021/12/24 16:12:33;;;;;;;8.63;7.18;;;;;;;;;;5057568;28;20031;-47
2021/12/24 16:15:00;;;;;;;9.77;6.88;;;;;;;;;;5055424;28;20114;-46